createdAt,value
2023-01-11T00:00:17.678Z,87
2023-01-11T00:01:24.720Z,87
2023-01-11T00:02:31.806Z,86
2023-01-11T00:03:39.016Z,86
2023-01-11T00:04:45.870Z,86
2023-01-11T00:05:52.955Z,86
2023-01-11T00:07:00.130Z,86
2023-01-11T00:08:06.625Z,86
2023-01-11T00:09:13.586Z,86
2023-01-11T00:10:20.715Z,86
2023-01-11T00:11:27.360Z,86
2023-01-11T00:12:34.517Z,86
2023-01-11T00:13:41.636Z,86
2023-01-11T00:14:48.242Z,87
2023-01-11T00:15:54.936Z,86
2023-01-11T00:17:02.193Z,87
2023-01-11T00:18:09.029Z,86
2023-01-11T00:19:16.165Z,86
2023-01-11T00:20:23.263Z,87
2023-01-11T00:21:29.891Z,87
2023-01-11T00:22:36.590Z,87
2023-01-11T00:23:43.728Z,87
2023-01-11T00:24:51.028Z,87
2023-01-11T00:25:58.016Z,87
2023-01-11T00:27:10.195Z,87
2023-01-11T00:28:17.200Z,87
2023-01-11T00:29:24.437Z,87
2023-01-11T00:30:31.485Z,87
2023-01-11T00:31:38.647Z,87
2023-01-11T00:32:45.508Z,87
2023-01-11T00:33:52.464Z,87
2023-01-11T00:34:59.655Z,87
2023-01-11T00:36:06.743Z,87
2023-01-11T00:37:13.720Z,87
2023-01-11T00:38:20.899Z,87
2023-01-11T00:39:33.116Z,86
2023-01-11T00:40:40.292Z,86
2023-01-11T00:41:47.403Z,87
2023-01-11T00:42:59.731Z,86
2023-01-11T00:44:11.653Z,87
2023-01-11T00:45:23.890Z,87
2023-01-11T00:46:36.188Z,86
2023-01-11T00:47:47.996Z,86
2023-01-11T00:49:00.150Z,86
2023-01-11T00:50:07.463Z,86
2023-01-11T00:51:14.307Z,86
2023-01-11T00:52:21.478Z,87
2023-01-11T00:53:28.559Z,87
2023-01-11T00:54:35.329Z,86
2023-01-11T00:55:42.659Z,86
2023-01-11T00:56:49.577Z,86
2023-01-11T00:57:56.204Z,86
2023-01-11T00:59:03.339Z,86
2023-01-11T01:00:10.327Z,86
2023-01-11T01:01:17.710Z,86
2023-01-11T01:02:24.686Z,87
2023-01-11T01:03:31.793Z,86
2023-01-11T01:04:38.960Z,86
2023-01-11T01:05:46.110Z,86
2023-01-11T01:06:53.187Z,86
2023-01-11T01:08:00.116Z,86
2023-01-11T01:09:07.147Z,86
2023-01-11T01:10:14.013Z,86
2023-01-11T01:11:21.161Z,86
2023-01-11T01:12:28.345Z,86
2023-01-11T01:13:40.107Z,86
2023-01-11T01:14:52.321Z,86
2023-01-11T01:15:59.543Z,86
2023-01-11T01:17:06.589Z,86
2023-01-11T01:18:13.564Z,86
2023-01-11T01:19:20.771Z,86
2023-01-11T01:20:27.338Z,86
2023-01-11T01:21:34.047Z,86
2023-01-11T01:22:41.153Z,86
2023-01-11T01:23:48.288Z,86
2023-01-11T01:24:58.047Z,86
2023-01-11T01:26:05.180Z,86
2023-01-11T01:27:12.194Z,86
2023-01-11T01:28:19.332Z,86
2023-01-11T01:29:26.413Z,86
2023-01-11T01:30:33.604Z,86
2023-01-11T01:31:40.678Z,86
2023-01-11T01:32:47.873Z,86
2023-01-11T01:33:55.024Z,86
2023-01-11T01:35:02.011Z,86
2023-01-11T01:36:09.125Z,86
2023-01-11T01:37:16.279Z,86
2023-01-11T01:38:23.382Z,86
2023-01-11T01:39:30.511Z,86
2023-01-11T01:40:37.642Z,86
2023-01-11T01:41:44.363Z,86
2023-01-11T01:42:51.552Z,86
2023-01-11T01:43:58.677Z,86
2023-01-11T01:45:05.315Z,86
2023-01-11T01:46:20.477Z,86
2023-01-11T01:47:27.537Z,86
2023-01-11T01:48:39.847Z,86
2023-01-11T01:49:47.000Z,86
2023-01-11T01:50:54.080Z,86
2023-01-11T01:52:00.809Z,86
2023-01-11T01:53:07.851Z,86
2023-01-11T01:54:14.897Z,86
2023-01-11T01:55:21.984Z,86
2023-01-11T01:56:29.086Z,86
2023-01-11T01:57:36.245Z,86
2023-01-11T01:58:43.476Z,86
2023-01-11T01:59:50.551Z,86
2023-01-11T02:00:57.709Z,86
2023-01-11T02:02:04.915Z,86
2023-01-11T02:03:11.873Z,86
2023-01-11T02:04:22.006Z,86
2023-01-11T02:05:29.411Z,86
2023-01-11T02:06:36.415Z,86
2023-01-11T02:07:43.429Z,86
2023-01-11T02:08:50.624Z,86
2023-01-11T02:10:00.274Z,86
2023-01-11T02:11:15.415Z,86
2023-01-11T02:12:30.090Z,86
2023-01-11T02:13:37.328Z,86
2023-01-11T02:14:44.089Z,86
2023-01-11T02:15:51.190Z,86
2023-01-11T02:16:58.214Z,86
2023-01-11T02:18:05.270Z,86
2023-01-11T02:19:14.840Z,86
2023-01-11T02:20:24.561Z,86
2023-01-11T02:21:42.055Z,86
2023-01-11T02:22:57.242Z,86
2023-01-11T02:24:09.388Z,86
2023-01-11T02:25:26.686Z,86
2023-01-11T02:26:38.979Z,86
2023-01-11T02:27:56.374Z,86
2023-01-11T02:29:13.481Z,86
2023-01-11T02:30:30.846Z,86
2023-01-11T02:31:42.990Z,86
2023-01-11T02:32:57.819Z,86
2023-01-11T02:34:14.974Z,86
2023-01-11T02:35:24.703Z,86
2023-01-11T02:36:34.375Z,86
2023-01-11T02:37:41.161Z,86
2023-01-11T02:38:56.318Z,86
2023-01-11T02:40:05.947Z,86
2023-01-11T02:41:12.925Z,86
2023-01-11T02:42:22.724Z,86
2023-01-11T02:43:43.185Z,86
2023-01-11T02:45:05.623Z,86
2023-01-11T02:46:23.251Z,87
2023-01-11T02:47:35.499Z,87
2023-01-11T02:48:42.569Z,86
2023-01-11T02:49:58.023Z,86
2023-01-11T02:51:15.099Z,86
2023-01-11T02:52:22.242Z,86
2023-01-11T02:53:39.724Z,86
2023-01-11T02:54:49.199Z,86
2023-01-11T02:55:56.396Z,86
2023-01-11T02:57:03.572Z,86
2023-01-11T02:58:10.503Z,86
2023-01-11T02:59:17.148Z,86
2023-01-11T03:00:24.298Z,86
2023-01-11T03:01:31.711Z,86
2023-01-11T03:02:38.718Z,86
2023-01-11T03:03:45.766Z,86
2023-01-11T03:04:52.931Z,86
2023-01-11T03:05:59.982Z,86
2023-01-11T03:07:09.505Z,86
2023-01-11T03:08:26.923Z,86
2023-01-11T03:09:33.991Z,86
2023-01-11T03:10:45.833Z,86
2023-01-11T03:12:03.159Z,86
2023-01-11T03:13:20.307Z,86
2023-01-11T03:14:27.078Z,86
2023-01-11T03:15:44.374Z,86
2023-01-11T03:16:56.536Z,86
2023-01-11T03:18:08.812Z,86
2023-01-11T03:19:23.495Z,86
2023-01-11T03:20:38.200Z,86
2023-01-11T03:21:45.414Z,86
2023-01-11T03:23:00.183Z,86
2023-01-11T03:24:06.867Z,86
2023-01-11T03:25:22.149Z,87
2023-01-11T03:26:29.412Z,87
2023-01-11T03:27:38.886Z,87
2023-01-11T03:28:56.206Z,87
2023-01-11T03:30:08.475Z,87
2023-01-11T03:31:25.645Z,87
2023-01-11T03:32:37.901Z,87
2023-01-11T03:33:47.553Z,87
2023-01-11T03:34:59.814Z,87
2023-01-11T03:36:14.927Z,87
2023-01-11T03:37:30.198Z,87
2023-01-11T03:38:42.419Z,87
2023-01-11T03:39:49.599Z,87
2023-01-11T03:40:59.312Z,87
2023-01-11T03:42:06.434Z,87
2023-01-11T03:43:13.469Z,87
2023-01-11T03:44:20.509Z,87
2023-01-11T03:45:27.708Z,87
2023-01-11T03:46:34.875Z,87
2023-01-11T03:47:41.420Z,87
2023-01-11T03:48:48.288Z,87
2023-01-11T03:50:05.540Z,87
2023-01-11T03:51:13.007Z,87
2023-01-11T03:52:20.063Z,87
2023-01-11T03:53:27.245Z,87
2023-01-11T03:54:34.086Z,87
2023-01-11T03:55:40.993Z,87
2023-01-11T03:56:48.154Z,87
2023-01-11T03:58:02.926Z,87
2023-01-11T03:59:09.931Z,87
2023-01-11T04:00:17.079Z,87
2023-01-11T04:01:24.271Z,87
2023-01-11T04:02:31.418Z,87
2023-01-11T04:03:43.665Z,87
2023-01-11T04:04:50.313Z,87
2023-01-11T04:05:57.423Z,87
2023-01-11T04:07:04.938Z,87
2023-01-11T04:08:12.134Z,87
2023-01-11T04:09:19.248Z,87
2023-01-11T04:10:26.320Z,87
2023-01-11T04:11:32.984Z,87
2023-01-11T04:12:40.271Z,87
2023-01-11T04:13:47.385Z,87
2023-01-11T04:14:54.375Z,87
2023-01-11T04:16:01.117Z,87
2023-01-11T04:17:08.182Z,87
2023-01-11T04:18:15.184Z,87
2023-01-11T04:19:22.698Z,87
2023-01-11T04:20:29.663Z,87
2023-01-11T04:21:39.181Z,87
2023-01-11T04:22:46.342Z,87
2023-01-11T04:23:53.584Z,87
2023-01-11T04:25:00.668Z,87
2023-01-11T04:26:07.854Z,87
2023-01-11T04:27:14.881Z,87
2023-01-11T04:28:21.929Z,87
2023-01-11T04:29:29.097Z,87
2023-01-11T04:30:36.188Z,87
2023-01-11T04:31:42.891Z,87
2023-01-11T04:32:49.531Z,87
2023-01-11T04:33:56.802Z,87
2023-01-11T04:35:03.797Z,87
2023-01-11T04:36:10.693Z,87
2023-01-11T04:37:17.907Z,87
2023-01-11T04:38:24.671Z,87
2023-01-11T04:39:31.634Z,87
2023-01-11T04:40:38.768Z,87
2023-01-11T04:41:45.953Z,87
2023-01-11T04:42:58.147Z,87
2023-01-11T04:44:05.151Z,87
2023-01-11T04:45:12.252Z,87
2023-01-11T04:46:18.893Z,87
2023-01-11T04:47:26.078Z,87
2023-01-11T04:48:33.153Z,87
2023-01-11T04:49:42.868Z,87
2023-01-11T04:50:49.844Z,87
2023-01-11T04:51:56.638Z,87
2023-01-11T04:53:03.847Z,87
2023-01-11T04:54:10.773Z,87
2023-01-11T04:55:17.954Z,87
2023-01-11T04:56:24.541Z,87
2023-01-11T04:57:31.218Z,87
2023-01-11T04:58:38.457Z,87
2023-01-11T04:59:45.482Z,87
2023-01-11T05:00:52.289Z,87
2023-01-11T05:01:59.448Z,87
2023-01-11T05:03:06.394Z,87
2023-01-11T05:04:13.760Z,87
2023-01-11T05:05:20.699Z,87
2023-01-11T05:06:27.846Z,87
2023-01-11T05:07:35.014Z,87
2023-01-11T05:08:42.055Z,87
2023-01-11T05:09:48.733Z,87
2023-01-11T05:10:55.862Z,87
2023-01-11T05:12:03.008Z,87
2023-01-11T05:13:10.204Z,87
2023-01-11T05:14:17.294Z,87
2023-01-11T05:15:24.261Z,87
2023-01-11T05:16:30.981Z,87
2023-01-11T05:17:38.026Z,87
2023-01-11T05:18:45.139Z,87
2023-01-11T05:19:51.934Z,87
2023-01-11T05:20:58.966Z,87
2023-01-11T05:22:06.155Z,87
2023-01-11T05:23:13.079Z,87
2023-01-11T05:24:20.226Z,87
2023-01-11T05:25:27.466Z,87
2023-01-11T05:26:35.001Z,87
2023-01-11T05:27:41.764Z,87
2023-01-11T05:28:48.836Z,87
2023-01-11T05:29:55.494Z,87
2023-01-11T05:31:02.705Z,87
2023-01-11T05:32:09.921Z,87
2023-01-11T05:33:16.883Z,87
2023-01-11T05:34:23.841Z,87
2023-01-11T05:35:31.026Z,87
2023-01-11T05:36:37.650Z,87
2023-01-11T05:37:44.853Z,87
2023-01-11T05:38:51.971Z,87
2023-01-11T05:39:58.611Z,87
2023-01-11T05:41:05.718Z,87
2023-01-11T05:42:12.683Z,87
2023-01-11T05:43:19.431Z,87
2023-01-11T05:44:26.499Z,87
2023-01-11T05:45:38.695Z,87
2023-01-11T05:46:46.030Z,87
2023-01-11T05:47:52.958Z,87
2023-01-11T05:49:00.081Z,87
2023-01-11T05:50:07.318Z,87
2023-01-11T05:51:14.259Z,87
2023-01-11T05:52:21.429Z,87
2023-01-11T05:53:28.754Z,87
2023-01-11T05:54:35.586Z,87
2023-01-11T05:55:42.215Z,87
2023-01-11T05:56:56.993Z,87
2023-01-11T05:58:04.169Z,87
2023-01-11T05:59:11.084Z,87
2023-01-11T06:00:18.162Z,87
2023-01-11T06:01:25.330Z,87
2023-01-11T06:02:32.697Z,87
2023-01-11T06:03:39.700Z,87
2023-01-11T06:04:46.751Z,87
2023-01-11T06:05:53.852Z,87
2023-01-11T06:07:01.111Z,87
2023-01-11T06:08:07.814Z,87
2023-01-11T06:09:14.713Z,87
2023-01-11T06:10:21.703Z,87
2023-01-11T06:11:28.359Z,87
2023-01-11T06:12:35.485Z,87
2023-01-11T06:13:42.677Z,87
2023-01-11T06:14:49.871Z,87
2023-01-11T06:15:57.006Z,87
2023-01-11T06:17:09.336Z,87
2023-01-11T06:18:16.106Z,87
2023-01-11T06:19:22.728Z,87
2023-01-11T06:20:29.389Z,87
2023-01-11T06:21:36.645Z,87
2023-01-11T06:22:43.706Z,87
2023-01-11T06:23:51.213Z,86
2023-01-11T06:24:58.140Z,86
2023-01-11T06:26:05.224Z,86
2023-01-11T06:27:12.121Z,86
2023-01-11T06:28:19.228Z,86
2023-01-11T06:29:26.363Z,86
2023-01-11T06:30:33.000Z,86
2023-01-11T06:31:40.127Z,86
2023-01-11T06:32:47.337Z,86
2023-01-11T06:33:53.963Z,86
2023-01-11T06:35:01.130Z,86
2023-01-11T06:36:08.304Z,86
2023-01-11T06:37:15.386Z,87
2023-01-11T06:38:22.351Z,87
2023-01-11T06:39:29.528Z,87
2023-01-11T06:40:36.662Z,86
2023-01-11T06:41:43.845Z,87
2023-01-11T06:42:50.999Z,87
2023-01-11T06:43:58.196Z,87
2023-01-11T06:45:05.308Z,87
2023-01-11T06:46:12.910Z,87
2023-01-11T06:47:20.047Z,87
2023-01-11T06:48:27.039Z,88
2023-01-11T06:49:33.779Z,87
2023-01-11T06:50:40.847Z,88
2023-01-11T06:51:47.975Z,87
2023-01-11T06:52:55.162Z,87
2023-01-11T06:54:02.310Z,87
2023-01-11T06:55:09.547Z,88
2023-01-11T06:56:16.410Z,88
2023-01-11T06:57:23.498Z,87
2023-01-11T06:58:30.668Z,87
2023-01-11T06:59:37.833Z,87
2023-01-11T07:00:44.908Z,87
2023-01-11T07:01:51.990Z,88
2023-01-11T07:02:59.241Z,88
2023-01-11T07:04:06.404Z,88
2023-01-11T07:05:13.393Z,88
2023-01-11T07:06:20.529Z,88
2023-01-11T07:07:27.605Z,88
2023-01-11T07:08:34.768Z,88
2023-01-11T07:09:41.948Z,88
2023-01-11T07:10:48.576Z,88
2023-01-11T07:11:55.310Z,88
2023-01-11T07:13:02.356Z,88
2023-01-11T07:14:09.487Z,88
2023-01-11T07:15:16.653Z,88
2023-01-11T07:16:23.708Z,88
2023-01-11T07:17:30.302Z,88
2023-01-11T07:18:37.381Z,88
2023-01-11T07:19:44.585Z,88
2023-01-11T07:20:51.933Z,88
2023-01-11T07:21:58.782Z,88
2023-01-11T07:23:05.957Z,88
2023-01-11T07:24:12.993Z,88
2023-01-11T07:25:20.144Z,88
2023-01-11T07:26:27.311Z,88
2023-01-11T07:27:34.120Z,88
2023-01-11T07:28:41.012Z,88
2023-01-11T07:29:48.191Z,88
2023-01-11T07:30:59.509Z,88
2023-01-11T07:32:02.089Z,88
2023-01-11T07:33:09.285Z,88
2023-01-11T07:34:16.251Z,88
2023-01-11T07:35:23.346Z,88
2023-01-11T07:36:30.466Z,88
2023-01-11T07:37:37.549Z,88
2023-01-11T07:38:44.733Z,88
2023-01-11T07:39:51.905Z,88
2023-01-11T07:40:58.456Z,88
2023-01-11T07:42:05.161Z,88
2023-01-11T07:43:17.178Z,88
2023-01-11T07:44:23.805Z,88
2023-01-11T07:45:44.488Z,88
2023-01-11T07:46:38.300Z,88
2023-01-11T07:47:45.430Z,88
2023-01-11T07:48:55.407Z,88
2023-01-11T07:50:02.085Z,88
2023-01-11T07:51:09.159Z,88
2023-01-11T07:52:16.214Z,88
2023-01-11T07:53:23.358Z,88
2023-01-11T07:54:30.494Z,88
2023-01-11T07:55:37.333Z,88
2023-01-11T07:56:44.425Z,88
2023-01-11T07:57:51.417Z,88
2023-01-11T07:59:01.047Z,88
2023-01-11T08:00:07.679Z,88
2023-01-11T08:01:15.209Z,88
2023-01-11T08:02:21.918Z,88
2023-01-11T08:03:29.091Z,88
2023-01-11T08:04:36.094Z,88
2023-01-11T08:05:42.787Z,88
2023-01-11T08:06:52.533Z,88
2023-01-11T08:07:59.586Z,88
2023-01-11T08:09:06.770Z,88
2023-01-11T08:10:13.989Z,88
2023-01-11T08:11:21.057Z,88
2023-01-11T08:12:33.277Z,88
2023-01-11T08:13:45.375Z,88
2023-01-11T08:14:57.805Z,88
2023-01-11T08:16:04.879Z,88
2023-01-11T08:17:11.871Z,88
2023-01-11T08:18:19.138Z,88
2023-01-11T08:19:26.078Z,88
2023-01-11T08:20:33.250Z,88
2023-01-11T08:21:40.427Z,88
2023-01-11T08:22:47.485Z,88
2023-01-11T08:23:54.725Z,88
2023-01-11T08:25:01.838Z,88
2023-01-11T08:26:09.022Z,88
2023-01-11T08:27:15.969Z,88
2023-01-11T08:28:23.108Z,88
2023-01-11T08:29:30.170Z,88
2023-01-11T08:30:36.988Z,88
2023-01-11T08:31:44.033Z,88
2023-01-11T08:32:51.163Z,88
2023-01-11T08:33:58.122Z,88
2023-01-11T08:35:04.884Z,88
2023-01-11T08:36:11.906Z,88
2023-01-11T08:37:19.150Z,89
2023-01-11T08:38:26.085Z,88
2023-01-11T08:39:33.199Z,88
2023-01-11T08:40:40.363Z,88
2023-01-11T08:41:47.003Z,88
2023-01-11T08:42:53.917Z,88
2023-01-11T08:44:00.873Z,88
2023-01-11T08:45:07.527Z,88
2023-01-11T08:46:14.567Z,88
2023-01-11T08:47:21.611Z,88
2023-01-11T08:48:28.844Z,88
2023-01-11T08:49:35.997Z,88
2023-01-11T08:50:42.961Z,88
2023-01-11T08:51:49.705Z,88
2023-01-11T08:52:56.832Z,88
2023-01-11T08:54:03.980Z,88
2023-01-11T08:55:13.984Z,88
2023-01-11T08:56:21.205Z,88
2023-01-11T08:57:28.279Z,88
2023-01-11T08:58:35.351Z,88
2023-01-11T08:59:42.441Z,88
2023-01-11T09:00:49.638Z,88
2023-01-11T09:01:56.888Z,88
2023-01-11T09:03:03.667Z,88
2023-01-11T09:04:23.660Z,88
2023-01-11T09:05:18.414Z,88
2023-01-11T09:06:24.198Z,88
2023-01-11T09:07:31.365Z,88
2023-01-11T09:08:38.486Z,87
2023-01-11T09:09:45.410Z,87
2023-01-11T09:10:52.161Z,87
2023-01-11T09:12:03.547Z,88
2023-01-11T09:13:09.018Z,88
2023-01-11T09:14:16.117Z,88
2023-01-11T09:15:22.760Z,87
2023-01-11T09:16:29.953Z,88
2023-01-11T09:17:37.086Z,88
2023-01-11T09:18:44.191Z,88
2023-01-11T09:19:51.210Z,88
2023-01-11T09:20:57.952Z,87
2023-01-11T09:22:05.140Z,87
2023-01-11T09:23:12.117Z,87
2023-01-11T09:24:19.121Z,88
2023-01-11T09:25:26.302Z,88
2023-01-11T09:26:33.040Z,88
2023-01-11T09:27:40.213Z,87
2023-01-11T09:28:47.237Z,87
2023-01-11T09:29:54.399Z,87
2023-01-11T09:31:01.061Z,87
2023-01-11T09:32:08.220Z,87
2023-01-11T09:33:15.135Z,87
2023-01-11T09:34:21.876Z,87
2023-01-11T09:35:29.186Z,87
2023-01-11T09:36:36.223Z,86
2023-01-11T09:37:43.181Z,86
2023-01-11T09:38:52.942Z,87
2023-01-11T09:39:59.944Z,87
2023-01-11T09:41:07.077Z,86
2023-01-11T09:42:24.349Z,86
2023-01-11T09:43:34.522Z,86
2023-01-11T09:44:41.657Z,86
2023-01-11T09:45:51.840Z,86
2023-01-11T09:46:58.516Z,86
2023-01-11T09:48:13.193Z,85
2023-01-11T09:49:25.660Z,85
2023-01-11T09:50:32.558Z,85
2023-01-11T09:51:45.307Z,85
2023-01-11T09:52:52.428Z,85
2023-01-11T09:54:02.170Z,85
2023-01-11T09:55:09.306Z,84
2023-01-11T09:56:19.301Z,84
2023-01-11T09:57:28.917Z,84
2023-01-11T09:58:44.217Z,84
2023-01-11T09:59:53.912Z,82
2023-01-11T10:01:06.818Z,83
2023-01-11T10:02:23.888Z,82
2023-01-11T10:03:36.127Z,82
2023-01-11T10:04:48.460Z,81
2023-01-11T10:06:02.967Z,81
2023-01-11T10:07:20.208Z,81
2023-01-11T10:18:21.457Z,79
2023-01-11T10:18:21.949Z,78
2023-01-11T10:18:24.701Z,78
2023-01-11T10:18:34.568Z,77
2023-01-11T10:19:40.480Z,77
2023-01-11T10:20:37.260Z,77
2023-01-11T10:21:44.255Z,76
2023-01-11T10:22:57.070Z,76
2023-01-11T10:24:09.347Z,75
2023-01-11T10:25:24.386Z,76
2023-01-11T10:26:36.621Z,76
2023-01-11T10:27:43.768Z,76
2023-01-11T10:28:56.096Z,75
2023-01-11T10:30:13.258Z,75
2023-01-11T10:31:20.417Z,75
2023-01-11T10:32:30.058Z,75
2023-01-11T10:33:45.416Z,75
2023-01-11T10:34:52.506Z,74
2023-01-11T10:36:04.830Z,72
2023-01-11T10:37:19.789Z,73
2023-01-11T10:38:34.676Z,73
2023-01-11T10:39:49.459Z,72
2023-01-11T10:41:09.815Z,73
2023-01-11T10:42:19.464Z,73
2023-01-11T10:43:26.615Z,74
2023-01-11T10:44:33.667Z,73
2023-01-11T10:45:46.022Z,73
2023-01-11T10:46:55.650Z,73
2023-01-11T10:48:02.807Z,73
2023-01-11T10:49:09.810Z,73
2023-01-11T10:50:27.027Z,74
2023-01-11T10:51:36.759Z,73
2023-01-11T10:52:43.917Z,73
2023-01-11T10:53:53.599Z,73
2023-01-11T10:55:10.930Z,72
2023-01-11T10:56:17.935Z,72
2023-01-11T10:57:27.559Z,72
2023-01-11T10:58:39.850Z,72
2023-01-11T10:59:49.430Z,73
2023-01-11T11:01:06.937Z,72
2023-01-11T11:02:23.020Z,72
2023-01-11T11:03:34.361Z,71
2023-01-11T11:04:46.610Z,70
2023-01-11T11:05:58.817Z,70
2023-01-11T11:07:06.037Z,69
2023-01-11T11:08:14.576Z,69
2023-01-11T11:09:20.048Z,70
2023-01-11T11:10:27.222Z,69
2023-01-11T11:11:39.522Z,69
2023-01-11T11:12:46.125Z,69
2023-01-11T11:13:58.387Z,69
2023-01-11T11:15:05.495Z,69
2023-01-11T11:16:12.504Z,69
2023-01-11T11:17:27.317Z,69
2023-01-11T11:18:34.435Z,69
2023-01-11T11:19:41.964Z,68
2023-01-11T11:20:48.279Z,68
2023-01-11T11:21:55.456Z,69
2023-01-11T11:23:02.283Z,69
2023-01-11T11:24:09.227Z,69
2023-01-11T11:25:26.369Z,68
2023-01-11T11:26:36.134Z,68
2023-01-11T11:27:42.719Z,69
2023-01-11T11:28:55.994Z,69
2023-01-11T11:30:03.369Z,68
2023-01-11T11:31:10.817Z,68
2023-01-11T11:32:17.675Z,68
2023-01-11T11:33:32.459Z,67
2023-01-11T11:34:39.756Z,66
2023-01-11T11:35:52.818Z,66
2023-01-11T11:37:02.514Z,66
2023-01-11T11:38:09.777Z,66
2023-01-11T11:39:24.425Z,64
2023-01-11T11:40:31.545Z,64
2023-01-11T11:41:38.745Z,64
2023-01-11T11:42:48.432Z,64
2023-01-11T11:43:55.521Z,65
2023-01-11T11:45:05.372Z,64
2023-01-11T11:46:15.570Z,64
2023-01-11T11:47:19.457Z,63
2023-01-11T11:48:26.508Z,63
2023-01-11T11:49:33.142Z,63
2023-01-11T11:50:45.322Z,63
2023-01-11T11:51:47.464Z,63
2023-01-11T11:52:54.501Z,64
2023-01-11T11:54:04.319Z,64
2023-01-11T11:55:11.308Z,64
2023-01-11T11:56:18.402Z,64
2023-01-11T11:57:33.187Z,64
2023-01-11T11:58:40.297Z,64
2023-01-11T11:59:47.418Z,64
2023-01-11T12:00:54.563Z,64
2023-01-11T12:02:01.785Z,64
2023-01-11T12:03:08.896Z,64
2023-01-11T12:04:18.395Z,64
2023-01-11T12:05:28.111Z,64
2023-01-11T12:06:35.185Z,65
2023-01-11T12:07:53.778Z,64
2023-01-11T12:08:48.921Z,64
2023-01-11T12:09:56.087Z,64
2023-01-11T12:11:03.276Z,63
2023-01-11T12:12:10.345Z,64
2023-01-11T12:13:23.081Z,63
2023-01-11T12:14:30.276Z,63
2023-01-11T12:15:37.277Z,63
2023-01-11T12:16:44.499Z,63
2023-01-11T12:17:51.566Z,63
2023-01-11T12:18:58.660Z,63
2023-01-11T12:20:05.467Z,63
2023-01-11T12:21:23.092Z,63
2023-01-11T12:22:30.164Z,64
2023-01-11T12:23:36.806Z,63
2023-01-11T12:24:43.949Z,64
2023-01-11T12:25:51.190Z,64
2023-01-11T12:27:03.339Z,64
2023-01-11T12:28:18.456Z,65
2023-01-11T12:29:28.166Z,64
2023-01-11T12:30:37.903Z,64
2023-01-11T12:31:50.095Z,64
2023-01-11T12:33:02.296Z,64
2023-01-11T12:34:19.594Z,64
2023-01-11T12:35:36.950Z,64
2023-01-11T12:36:54.236Z,63
2023-01-11T12:38:06.502Z,63
2023-01-11T12:39:23.701Z,62
2023-01-11T12:40:33.356Z,62
2023-01-11T12:41:45.801Z,62
2023-01-11T12:42:57.741Z,62
2023-01-11T12:44:10.020Z,62
2023-01-11T12:45:22.300Z,62
2023-01-11T12:46:34.360Z,63
2023-01-11T12:47:46.623Z,63
2023-01-11T12:49:03.990Z,62
2023-01-11T12:50:17.085Z,62
2023-01-11T12:51:24.385Z,62
2023-01-11T12:52:41.588Z,62
2023-01-11T12:53:53.870Z,62
2023-01-11T12:55:09.133Z,63
2023-01-11T12:56:21.204Z,63
2023-01-11T12:57:30.955Z,63
2023-01-11T12:58:45.728Z,63
2023-01-11T12:59:55.493Z,63
2023-01-11T13:01:07.780Z,63
2023-01-11T13:02:22.824Z,63
2023-01-11T13:03:40.108Z,63
2023-01-11T13:04:52.331Z,63
2023-01-11T13:06:05.084Z,63
2023-01-11T13:07:14.621Z,63
2023-01-11T13:08:29.371Z,63
2023-01-11T13:09:46.696Z,63
2023-01-11T13:11:04.059Z,64
2023-01-11T13:12:21.263Z,64
2023-01-11T13:13:33.455Z,64
2023-01-11T13:14:48.400Z,64
2023-01-11T13:15:55.412Z,64
2023-01-11T13:17:02.574Z,64
2023-01-11T13:18:19.724Z,64
2023-01-11T13:19:26.873Z,65
2023-01-11T13:20:53.697Z,65
2023-01-11T13:21:52.324Z,64
2023-01-11T13:22:59.377Z,65
2023-01-11T13:24:11.674Z,64
2023-01-11T13:25:18.743Z,64
2023-01-11T13:26:28.456Z,65
2023-01-11T13:27:35.594Z,65
2023-01-11T13:28:42.757Z,65
2023-01-11T13:29:49.387Z,65
2023-01-11T13:30:59.134Z,65
2023-01-11T13:32:06.117Z,65
2023-01-11T13:33:18.328Z,65
2023-01-11T13:34:25.453Z,65
2023-01-11T13:35:37.639Z,65
2023-01-11T13:36:44.291Z,65
2023-01-11T13:37:50.930Z,64
2023-01-11T13:39:00.637Z,64
2023-01-11T13:40:12.691Z,64
2023-01-11T13:41:22.391Z,64
2023-01-11T13:42:29.564Z,64
2023-01-11T13:43:42.198Z,64
2023-01-11T13:44:57.100Z,64
2023-01-11T13:46:07.307Z,64
2023-01-11T13:47:16.789Z,63
2023-01-11T13:48:34.162Z,64
2023-01-11T13:49:40.992Z,64
2023-01-11T13:50:56.136Z,64
2023-01-11T13:52:03.177Z,65
2023-01-11T13:53:17.887Z,65
2023-01-11T13:54:32.999Z,65
2023-01-11T13:55:44.901Z,64
2023-01-11T13:57:02.182Z,64
2023-01-11T13:58:09.335Z,64
2023-01-11T13:59:18.987Z,64
2023-01-11T14:00:31.227Z,64
2023-01-11T14:01:46.607Z,64
2023-01-11T14:02:56.609Z,64
2023-01-11T14:04:06.275Z,64
2023-01-11T14:05:21.004Z,64
2023-01-11T14:06:27.661Z,64
2023-01-11T14:07:44.913Z,64
2023-01-11T14:09:02.303Z,64
2023-01-11T14:10:17.589Z,64
2023-01-11T14:11:29.810Z,64
2023-01-11T14:12:39.375Z,65
2023-01-11T14:13:51.764Z,65
2023-01-11T14:15:11.986Z,65
2023-01-11T14:16:27.184Z,65
2023-01-11T14:17:44.619Z,65
2023-01-11T14:19:02.399Z,65
2023-01-11T14:20:11.346Z,65
2023-01-11T14:21:24.201Z,66
2023-01-11T14:22:36.433Z,67
2023-01-11T14:23:53.772Z,66
2023-01-11T14:25:00.781Z,66
2023-01-11T14:26:15.468Z,66
2023-01-11T14:27:32.779Z,66
2023-01-11T14:28:50.262Z,67
2023-01-11T14:30:05.372Z,67
2023-01-11T14:31:17.691Z,67
2023-01-11T14:32:34.880Z,67
2023-01-11T14:33:47.113Z,67
2023-01-11T14:34:59.373Z,67
2023-01-11T14:36:14.515Z,67
2023-01-11T14:37:29.838Z,68
2023-01-11T14:38:42.043Z,68
2023-01-11T14:39:54.415Z,68
2023-01-11T14:41:06.474Z,68
2023-01-11T14:42:30.715Z,68
2023-01-11T14:43:33.962Z,68
2023-01-11T14:44:51.346Z,71
2023-01-11T14:46:03.591Z,70
2023-01-11T14:47:13.539Z,69
2023-01-11T14:48:28.515Z,69
2023-01-11T14:49:35.428Z,68
2023-01-11T14:50:52.915Z,69
2023-01-11T14:52:08.062Z,69
2023-01-11T14:53:18.170Z,69
2023-01-11T14:54:24.848Z,69
2023-01-11T14:55:37.478Z,69
2023-01-11T14:56:44.136Z,69
2023-01-11T14:57:56.452Z,69
2023-01-11T14:59:03.453Z,69
2023-01-11T15:00:10.734Z,70
2023-01-11T15:01:22.877Z,69
2023-01-11T15:02:29.570Z,69
2023-01-11T15:03:36.625Z,69
2023-01-11T15:04:46.383Z,69
2023-01-11T15:05:56.451Z,69
2023-01-11T15:07:06.122Z,70
2023-01-11T15:08:20.882Z,70
2023-01-11T15:09:27.823Z,70
2023-01-11T15:10:45.323Z,70
2023-01-11T15:12:02.580Z,70
2023-01-11T15:13:14.723Z,71
2023-01-11T15:14:29.444Z,71
2023-01-11T15:15:36.158Z,71
2023-01-11T15:16:48.373Z,71
2023-01-11T15:18:00.743Z,71
2023-01-11T15:19:12.772Z,71
2023-01-11T15:20:30.082Z,71
2023-01-11T15:21:37.123Z,74
2023-01-11T15:22:44.416Z,72
2023-01-11T15:23:51.715Z,74
2023-01-11T15:24:58.668Z,71
2023-01-11T15:26:05.760Z,72
2023-01-11T15:27:12.834Z,72
2023-01-11T15:28:25.163Z,71
2023-01-11T15:29:40.397Z,71
2023-01-11T15:30:50.440Z,71
2023-01-11T15:32:02.802Z,71
2023-01-11T15:33:15.027Z,72
2023-01-11T15:34:21.996Z,71
2023-01-11T15:35:32.095Z,71
2023-01-11T15:36:39.260Z,71
2023-01-11T15:37:54.225Z,70
2023-01-11T15:39:07.027Z,70
2023-01-11T15:40:13.786Z,70
2023-01-11T15:41:23.501Z,70
2023-01-11T15:42:40.750Z,70
2023-01-11T15:43:55.649Z,70
2023-01-11T15:45:12.871Z,70
2023-01-11T15:46:30.222Z,69
2023-01-11T15:47:50.011Z,69
2023-01-11T15:49:07.601Z,70
2023-01-11T15:50:22.570Z,70
2023-01-11T15:51:37.827Z,71
2023-01-11T15:52:52.651Z,71
2023-01-11T15:54:04.940Z,70
2023-01-11T15:55:17.017Z,70
2023-01-11T15:56:34.356Z,70
2023-01-11T15:57:46.573Z,69
2023-01-11T15:59:04.060Z,70
2023-01-11T16:00:16.035Z,69
2023-01-11T16:01:33.333Z,69
2023-01-11T16:02:48.819Z,69
2023-01-11T16:04:00.438Z,69
2023-01-11T16:05:15.587Z,69
2023-01-11T16:06:25.277Z,69
2023-01-11T16:07:42.618Z,69
2023-01-11T16:08:49.880Z,70
2023-01-11T16:10:02.099Z,70
2023-01-11T16:11:15.146Z,70
2023-01-11T16:12:32.473Z,70
2023-01-11T16:13:50.369Z,70
2023-01-11T16:15:02.834Z,70
2023-01-11T16:16:20.264Z,70
2023-01-11T16:17:29.940Z,70
2023-01-11T16:18:37.043Z,70
2023-01-11T16:19:44.163Z,70
2023-01-11T16:20:50.898Z,70
2023-01-11T16:22:03.253Z,70
2023-01-11T16:23:10.531Z,70
2023-01-11T16:24:17.667Z,70
2023-01-11T16:25:24.383Z,71
2023-01-11T16:26:34.097Z,70
2023-01-11T16:27:41.186Z,70
2023-01-11T16:28:48.236Z,70
2023-01-11T16:29:54.999Z,70
2023-01-11T16:31:02.161Z,70
2023-01-11T16:32:09.187Z,70
2023-01-11T16:33:23.860Z,70
2023-01-11T16:34:31.144Z,70